Los Angeles, California
Traffic Map
Current Weather Conditions
Los Angeles, California
Clear
Clear
12°
Feels Like: 12°
Wind Chill: 12° Ceiling: Unl
Heat Index: 12° Visibility: 7mi
Dew Point: 10° Wind: 0mph
Humidity: 89% Direction: ° ()
Pressure: 30.06in Gusts: 0mph
Raw Report DataKCQT 170647Z AUTO 00000KT 7SM CLR 12/10 A3006 RMK AO2 SLP180 T01170100
Traffic Incident Summary
Active as of:
Severity:
Category:
InformationThere was an issue retrieving the traffic information for this location. Please try a different location or try again shortly.
Advertisements
Track Severe Weather on mobile